createdAt,value
2022-12-22T00:02:38.076Z,74.34
2022-12-22T00:05:41.110Z,73.96
2022-12-22T00:08:26.854Z,71.55
2022-12-22T00:11:12.711Z,71.11
2022-12-22T00:14:02.727Z,70.98
2022-12-22T00:16:53.549Z,71.48
2022-12-22T00:19:39.557Z,72.62
2022-12-22T00:22:33.608Z,73.04
2022-12-22T00:25:19.493Z,73.75
2022-12-22T00:28:05.480Z,73.49
2022-12-22T00:30:51.410Z,70.94
2022-12-22T00:33:37.739Z,70.10
2022-12-22T00:36:24.770Z,69.92
2022-12-22T00:39:10.681Z,70.14
2022-12-22T00:41:56.364Z,70.47
2022-12-22T00:44:42.287Z,70.74
2022-12-22T00:47:33.163Z,70.95
2022-12-22T00:50:18.957Z,70.90
2022-12-22T00:53:04.942Z,71.61
2022-12-22T00:55:50.860Z,72.02
2022-12-22T00:58:37.942Z,72.61
2022-12-22T01:01:24.131Z,70.68
2022-12-22T01:04:10.132Z,69.36
2022-12-22T01:06:56.732Z,69.03
2022-12-22T01:09:42.726Z,69.52
2022-12-22T01:12:33.868Z,70.17
2022-12-22T01:15:19.719Z,70.81
2022-12-22T01:18:05.824Z,71.44
2022-12-22T01:20:51.919Z,71.97
2022-12-22T01:23:38.416Z,72.05
2022-12-22T01:26:27.924Z,71.29
2022-12-22T01:29:13.982Z,68.98
2022-12-22T01:32:00.485Z,68.39
2022-12-22T01:34:46.297Z,68.65
2022-12-22T01:37:32.110Z,69.19
2022-12-22T01:40:17.860Z,69.50
2022-12-22T01:43:03.989Z,70.05
2022-12-22T01:45:51.409Z,70.55
2022-12-22T01:48:42.375Z,70.92
2022-12-22T01:51:40.097Z,70.88
2022-12-22T01:54:25.940Z,71.24
2022-12-22T01:57:11.914Z,70.09
2022-12-22T01:59:57.910Z,67.79
2022-12-22T02:02:44.622Z,67.16
2022-12-22T02:05:31.525Z,67.18
2022-12-22T02:08:20.483Z,67.89
2022-12-22T02:11:32.590Z,68.42
2022-12-22T02:14:26.153Z,69.22
2022-12-22T02:17:15.762Z,69.68
2022-12-22T02:20:23.330Z,70.36
2022-12-22T02:23:26.434Z,70.38
2022-12-22T02:26:15.975Z,70.50
2022-12-22T02:29:02.373Z,68.26
2022-12-22T02:31:54.327Z,66.15
2022-12-22T02:34:40.115Z,65.95
2022-12-22T02:37:35.626Z,66.27
2022-12-22T02:40:46.850Z,66.81
2022-12-22T02:43:38.951Z,67.66
2022-12-22T02:46:48.965Z,68.02
2022-12-22T02:49:40.161Z,68.22
2022-12-22T02:52:33.132Z,68.41
2022-12-22T02:55:18.962Z,68.53
2022-12-22T02:58:05.036Z,69.09
2022-12-22T03:00:50.942Z,69.20
2022-12-22T03:03:37.172Z,69.60
2022-12-22T03:06:23.130Z,70.24
2022-12-22T03:09:08.987Z,68.37
2022-12-22T03:11:54.709Z,66.40
2022-12-22T03:14:40.587Z,65.93
2022-12-22T03:17:26.337Z,66.30
2022-12-22T03:20:12.295Z,66.54
2022-12-22T03:22:58.155Z,67.35
2022-12-22T03:25:44.250Z,67.59
2022-12-22T03:28:11.704Z,67.76
2022-12-22T03:30:38.830Z,68.07
2022-12-22T03:33:05.842Z,68.59
2022-12-22T03:35:32.863Z,69.30
2022-12-22T03:38:03.544Z,69.55
2022-12-22T03:40:31.466Z,69.72
2022-12-22T03:43:17.233Z,69.92
2022-12-22T03:46:03.155Z,69.13
2022-12-22T03:48:30.141Z,67.32
2022-12-22T03:50:57.329Z,66.75
2022-12-22T03:53:24.334Z,66.77
2022-12-22T03:55:51.295Z,67.15
2022-12-22T03:58:18.416Z,67.47
2022-12-22T04:00:45.547Z,67.80
2022-12-22T04:03:13.342Z,68.03
2022-12-22T04:05:40.556Z,68.25
2022-12-22T04:08:07.558Z,68.63
2022-12-22T04:10:53.347Z,68.85
2022-12-22T04:13:20.439Z,68.94
2022-12-22T04:15:47.650Z,69.15
2022-12-22T04:18:14.681Z,69.29
2022-12-22T04:20:41.774Z,69.51
2022-12-22T04:23:08.891Z,69.78
2022-12-22T04:25:35.906Z,68.58
2022-12-22T04:28:02.994Z,67.28
2022-12-22T04:30:30.043Z,67.01
2022-12-22T04:32:57.930Z,66.79
2022-12-22T04:35:24.939Z,66.57
2022-12-22T04:37:52.006Z,66.50
2022-12-22T04:40:19.168Z,66.65
2022-12-22T04:42:46.343Z,67.07
2022-12-22T04:45:13.629Z,67.65
2022-12-22T04:47:40.615Z,68.09
2022-12-22T04:50:08.626Z,68.58
2022-12-22T04:52:35.614Z,69.41
2022-12-22T04:55:02.618Z,69.72
2022-12-22T04:57:29.605Z,70.29
2022-12-22T04:59:56.614Z,71.11
2022-12-22T05:02:23.664Z,70.70
2022-12-22T05:04:50.698Z,68.40
2022-12-22T05:07:17.679Z,67.53
2022-12-22T05:09:44.662Z,68.05
2022-12-22T05:12:30.396Z,68.40
2022-12-22T05:14:57.446Z,68.71
2022-12-22T05:17:24.387Z,69.30
2022-12-22T05:19:51.322Z,70.17
2022-12-22T05:22:18.386Z,70.76
2022-12-22T05:24:45.431Z,71.13
2022-12-22T05:27:12.570Z,71.64
2022-12-22T05:29:39.576Z,72.02
2022-12-22T05:32:06.599Z,72.47
2022-12-22T05:34:33.589Z,71.80
2022-12-22T05:37:00.603Z,69.90
2022-12-22T05:39:27.554Z,68.98
2022-12-22T05:41:54.563Z,68.50
2022-12-22T05:44:21.583Z,68.77
2022-12-22T05:46:51.949Z,69.04
2022-12-22T05:49:19.529Z,69.63
2022-12-22T05:51:46.612Z,70.07
2022-12-22T05:54:13.753Z,70.70
2022-12-22T05:56:40.780Z,71.10
2022-12-22T05:59:07.815Z,71.17
2022-12-22T06:01:34.859Z,71.76
2022-12-22T06:04:02.150Z,71.98
2022-12-22T06:06:29.990Z,71.60
2022-12-22T06:08:56.989Z,70.05
2022-12-22T06:11:24.077Z,68.42
2022-12-22T06:13:50.991Z,68.40
2022-12-22T06:16:18.150Z,68.67
2022-12-22T06:18:45.108Z,69.27
2022-12-22T06:21:12.090Z,69.92
2022-12-22T06:23:39.071Z,70.33
2022-12-22T06:26:06.039Z,70.96
2022-12-22T06:28:33.024Z,71.36
2022-12-22T06:31:00.303Z,71.84
2022-12-22T06:33:27.345Z,72.40
2022-12-22T06:35:58.896Z,72.89
2022-12-22T06:38:27.837Z,72.30
2022-12-22T06:40:55.146Z,70.30
2022-12-22T06:43:22.158Z,69.36
2022-12-22T06:45:49.195Z,69.32
2022-12-22T06:48:16.242Z,69.83
2022-12-22T06:50:43.311Z,70.06
2022-12-22T06:53:10.438Z,70.72
2022-12-22T06:55:37.571Z,71.42
2022-12-22T06:58:05.342Z,72.26
2022-12-22T07:00:32.390Z,72.73
2022-12-22T07:02:59.555Z,72.87
2022-12-22T07:05:26.782Z,73.58
2022-12-22T07:07:53.929Z,72.36
2022-12-22T07:10:40.981Z,70.56
2022-12-22T07:13:19.434Z,70.02
2022-12-22T07:15:48.933Z,70.74
2022-12-22T07:18:19.550Z,71.27
2022-12-22T07:20:46.588Z,71.57
2022-12-22T07:23:13.595Z,72.23
2022-12-22T07:25:40.575Z,72.81
2022-12-22T07:28:07.699Z,72.93
2022-12-22T07:30:36.530Z,73.12
2022-12-22T07:33:04.075Z,73.69
2022-12-22T07:35:31.157Z,72.48
2022-12-22T07:37:58.117Z,70.87
2022-12-22T07:40:25.095Z,70.22
2022-12-22T07:42:56.905Z,70.53
2022-12-22T07:45:24.008Z,70.91
2022-12-22T07:47:51.081Z,71.08
2022-12-22T07:50:26.007Z,71.70
2022-12-22T07:52:56.439Z,71.69
2022-12-22T07:55:27.805Z,71.98
2022-12-22T07:57:55.086Z,72.61
2022-12-22T08:00:22.992Z,72.76
2022-12-22T08:02:54.599Z,72.49
2022-12-22T08:05:22.174Z,70.57
2022-12-22T08:07:49.778Z,69.83
2022-12-22T08:10:17.308Z,70.54
2022-12-22T08:12:44.340Z,71.22
2022-12-22T08:15:11.912Z,72.09
2022-12-22T08:17:39.031Z,72.45
2022-12-22T08:20:06.728Z,72.89
2022-12-22T08:22:34.089Z,73.18
2022-12-22T08:25:01.081Z,73.52
2022-12-22T08:27:39.978Z,73.80
2022-12-22T08:30:08.801Z,74.42
2022-12-22T08:32:36.530Z,75.09
2022-12-22T08:35:04.670Z,73.76
2022-12-22T08:37:33.825Z,74.12
2022-12-22T08:40:03.529Z,74.64
2022-12-22T08:42:30.561Z,76.30
2022-12-22T08:44:57.557Z,78.07
2022-12-22T08:47:24.657Z,79.42
2022-12-22T08:49:51.727Z,81.27
2022-12-22T08:52:19.467Z,82.25
2022-12-22T08:54:46.833Z,80.80
2022-12-22T08:57:13.875Z,80.24
2022-12-22T08:59:40.932Z,80.07
2022-12-22T09:02:08.099Z,81.05
2022-12-22T09:04:35.543Z,82.09
2022-12-22T09:07:02.810Z,82.50
2022-12-22T09:09:33.444Z,82.56
2022-12-22T09:12:01.405Z,80.31
2022-12-22T09:14:29.057Z,79.46
2022-12-22T09:16:56.566Z,78.72
2022-12-22T09:19:23.660Z,79.62
2022-12-22T09:21:50.723Z,79.80
2022-12-22T09:24:17.912Z,81.61
2022-12-22T09:26:45.045Z,81.90
2022-12-22T09:29:15.952Z,81.04
2022-12-22T09:31:43.517Z,79.44
2022-12-22T09:34:16.859Z,78.70
2022-12-22T09:36:45.198Z,79.55
2022-12-22T09:39:12.212Z,80.38
2022-12-22T09:41:50.935Z,80.75
2022-12-22T09:44:28.249Z,80.41
2022-12-22T09:46:56.509Z,78.86
2022-12-22T09:49:23.862Z,77.52
2022-12-22T09:51:59.075Z,77.06
2022-12-22T09:54:26.279Z,77.76
2022-12-22T09:56:53.420Z,78.44
2022-12-22T09:59:21.292Z,78.81
2022-12-22T10:02:25.967Z,79.58
2022-12-22T10:04:56.215Z,78.29
2022-12-22T10:07:36.329Z,76.39
2022-12-22T10:10:32.975Z,75.99
2022-12-22T10:13:01.897Z,75.88
2022-12-22T10:15:36.535Z,76.97
2022-12-22T10:18:15.600Z,77.55
2022-12-22T10:20:43.637Z,78.47
2022-12-22T10:23:15.568Z,79.16
2022-12-22T10:26:26.964Z,78.10
2022-12-22T10:28:51.172Z,76.49
2022-12-22T10:31:23.056Z,76.81
2022-12-22T10:33:51.911Z,76.88
2022-12-22T10:36:30.871Z,77.35
2022-12-22T10:39:05.367Z,78.39
2022-12-22T10:41:46.109Z,79.76
2022-12-22T10:44:17.314Z,80.59
2022-12-22T10:47:06.268Z,79.09
2022-12-22T10:52:29.663Z,78.01
2022-12-22T10:55:21.126Z,78.98
2022-12-22T10:57:49.259Z,79.76
2022-12-22T11:00:37.314Z,80.14
2022-12-22T11:03:05.909Z,81.18
2022-12-22T11:05:33.425Z,80.31
2022-12-22T11:08:02.445Z,78.91
2022-12-22T11:10:33.670Z,77.86
2022-12-22T11:13:10.421Z,78.27
2022-12-22T11:15:43.302Z,78.77
2022-12-22T11:18:58.681Z,79.56
2022-12-22T11:21:38.959Z,79.87
2022-12-22T11:24:25.885Z,78.51
2022-12-22T11:27:45.585Z,76.57
2022-12-22T11:30:24.823Z,76.44
2022-12-22T11:33:28.385Z,77.09
2022-12-22T11:36:10.344Z,77.97
2022-12-22T11:39:09.379Z,78.41
2022-12-22T11:41:51.300Z,78.85
2022-12-22T11:45:14.872Z,78.31
2022-12-22T11:48:24.382Z,75.54
2022-12-22T11:51:10.923Z,74.99
2022-12-22T11:54:31.738Z,75.54
2022-12-22T11:57:07.863Z,76.32
2022-12-22T11:59:42.804Z,76.80
2022-12-22T12:02:54.445Z,77.34
2022-12-22T12:06:05.419Z,77.67
2022-12-22T12:08:59.109Z,75.69
2022-12-22T12:11:35.705Z,74.78
2022-12-22T12:14:36.701Z,74.85
2022-12-22T12:17:43.160Z,75.60
2022-12-22T12:20:52.249Z,76.10
2022-12-22T12:23:49.644Z,76.71
2022-12-22T12:26:24.478Z,77.61
2022-12-22T12:36:40.317Z,74.12
2022-12-22T12:39:13.398Z,74.05
2022-12-22T12:42:08.334Z,74.55
2022-12-22T12:44:36.406Z,75.60
2022-12-22T12:47:07.744Z,75.67
2022-12-22T12:49:34.931Z,76.26
2022-12-22T12:52:09.399Z,76.55
2022-12-22T12:54:40.815Z,76.38
2022-12-22T12:57:07.843Z,74.40
2022-12-22T12:59:41.215Z,73.49
2022-12-22T13:02:27.209Z,73.63
2022-12-22T13:05:11.638Z,74.37
2022-12-22T13:08:17.429Z,74.74
2022-12-22T13:10:48.768Z,76.12
2022-12-22T13:13:22.073Z,76.97
2022-12-22T13:16:04.769Z,77.83
2022-12-22T13:18:35.300Z,76.12
2022-12-22T13:21:42.486Z,75.26
2022-12-22T13:24:23.339Z,75.24
2022-12-22T13:26:45.812Z,76.31
2022-12-22T13:29:35.933Z,77.23
2022-12-22T13:32:13.928Z,78.54
2022-12-22T13:35:04.886Z,79.66
2022-12-22T13:37:31.526Z,78.53
2022-12-22T13:40:15.508Z,78.15
2022-12-22T13:42:43.685Z,79.64
2022-12-22T13:45:33.745Z,80.45
2022-12-22T13:48:01.714Z,81.86
2022-12-22T13:50:39.406Z,81.54
2022-12-22T13:53:08.562Z,80.49
2022-12-22T13:55:37.101Z,80.66
2022-12-22T13:58:24.769Z,81.76
2022-12-22T14:01:22.953Z,83.33
2022-12-22T14:04:00.835Z,84.14
2022-12-22T14:07:48.743Z,83.27
2022-12-22T14:10:15.987Z,81.52
2022-12-22T14:12:45.134Z,81.12
2022-12-22T14:15:17.135Z,82.36
2022-12-22T14:17:52.041Z,83.30
2022-12-22T14:20:25.383Z,83.84
2022-12-22T14:22:58.701Z,82.80
2022-12-22T14:25:29.915Z,81.84
2022-12-22T14:27:57.168Z,81.71
2022-12-22T14:30:26.700Z,82.86
2022-12-22T14:32:57.816Z,83.93
2022-12-22T14:35:27.804Z,83.84
2022-12-22T14:38:15.879Z,85.13
2022-12-22T14:40:44.120Z,84.66
2022-12-22T14:43:20.464Z,83.37
2022-12-22T14:45:48.807Z,82.11
2022-12-22T14:48:24.128Z,81.80
2022-12-22T14:50:52.094Z,82.44
2022-12-22T14:53:24.619Z,83.57
2022-12-22T14:55:51.653Z,83.02
2022-12-22T14:58:21.347Z,81.76
2022-12-22T15:00:49.663Z,81.71
2022-12-22T15:03:37.348Z,81.80
2022-12-22T15:06:25.077Z,82.97
2022-12-22T15:08:53.670Z,84.18
2022-12-22T15:11:22.507Z,83.03
2022-12-22T15:13:50.055Z,82.37
2022-12-22T15:16:20.841Z,82.66
2022-12-22T15:18:48.186Z,83.37
2022-12-22T15:21:16.104Z,84.44
2022-12-22T15:23:43.745Z,84.33
2022-12-22T15:26:11.956Z,83.07
2022-12-22T15:28:39.157Z,82.46
2022-12-22T15:31:12.212Z,82.89
2022-12-22T15:33:39.382Z,83.43
2022-12-22T15:36:06.907Z,84.35
2022-12-22T15:38:38.719Z,83.67
2022-12-22T15:41:07.041Z,82.76
2022-12-22T15:46:22.536Z,83.88
2022-12-22T15:48:50.050Z,84.72
2022-12-22T15:51:23.665Z,84.30
2022-12-22T15:53:50.935Z,82.86
2022-12-22T15:56:22.352Z,82.72
2022-12-22T15:58:49.588Z,83.07
2022-12-22T16:01:16.706Z,83.95
2022-12-22T16:03:44.212Z,84.71
2022-12-22T16:06:16.030Z,83.88
2022-12-22T16:08:51.043Z,83.38
2022-12-22T16:11:18.229Z,83.70
2022-12-22T16:13:45.431Z,84.24
2022-12-22T16:16:12.611Z,85.42
2022-12-22T16:18:40.100Z,84.50
2022-12-22T16:21:29.999Z,84.07
2022-12-22T16:24:00.600Z,84.46
2022-12-22T16:26:27.789Z,86.12
2022-12-22T16:28:55.316Z,86.23
2022-12-22T16:31:23.452Z,84.30
2022-12-22T16:33:50.800Z,83.59
2022-12-22T16:36:18.014Z,84.32
2022-12-22T16:38:46.065Z,85.76
2022-12-22T16:41:19.285Z,86.32
2022-12-22T16:43:49.069Z,85.97
2022-12-22T16:46:17.917Z,85.07
2022-12-22T16:48:55.992Z,84.37
2022-12-22T16:51:26.510Z,84.58
2022-12-22T16:53:53.838Z,84.93
2022-12-22T16:56:29.124Z,85.50
2022-12-22T16:58:56.332Z,84.77
2022-12-22T17:01:48.780Z,83.59
2022-12-22T17:04:30.866Z,82.92
2022-12-22T17:06:59.683Z,83.44
2022-12-22T17:09:31.416Z,84.72
2022-12-22T17:11:59.302Z,86.03
2022-12-22T17:14:34.730Z,85.76
2022-12-22T17:17:01.891Z,84.12
2022-12-22T17:19:28.895Z,83.66
2022-12-22T17:21:56.601Z,83.59
2022-12-22T17:24:28.516Z,83.68
2022-12-22T17:26:58.771Z,84.53
2022-12-22T17:29:25.922Z,84.12
2022-12-22T17:31:56.826Z,83.09
2022-12-22T17:34:24.378Z,82.46
2022-12-22T17:36:57.027Z,83.08
2022-12-22T17:39:24.027Z,83.67
2022-12-22T17:41:56.702Z,84.12
2022-12-22T17:44:25.337Z,83.20
2022-12-22T17:46:52.641Z,81.88
2022-12-22T17:49:22.675Z,81.62
2022-12-22T17:51:50.146Z,81.79
2022-12-22T17:54:25.389Z,82.55
2022-12-22T17:56:54.818Z,83.89
2022-12-22T17:59:21.882Z,83.75
2022-12-22T18:01:49.229Z,82.62
2022-12-22T18:04:16.639Z,82.23
2022-12-22T18:06:43.893Z,82.85
2022-12-22T18:09:18.967Z,83.51
2022-12-22T18:11:46.381Z,84.27
2022-12-22T18:14:13.928Z,83.55
2022-12-22T18:16:41.012Z,82.31
2022-12-22T18:19:08.331Z,82.09
2022-12-22T18:21:36.199Z,82.32
2022-12-22T18:24:03.427Z,83.31
2022-12-22T18:26:31.453Z,83.94
2022-12-22T18:28:58.921Z,82.71
2022-12-22T18:31:26.236Z,82.15
2022-12-22T18:33:53.801Z,82.20
2022-12-22T18:36:28.776Z,82.90
2022-12-22T18:38:55.983Z,83.85
2022-12-22T18:41:24.060Z,84.09
2022-12-22T18:43:51.704Z,83.06
2022-12-22T18:46:19.713Z,82.47
2022-12-22T18:49:09.667Z,81.90
2022-12-22T18:51:36.815Z,82.39
2022-12-22T18:54:03.959Z,83.27
2022-12-22T18:56:31.210Z,84.27
2022-12-22T18:58:58.365Z,83.99
2022-12-22T19:01:26.507Z,82.70
2022-12-22T19:03:55.905Z,82.75
2022-12-22T19:06:23.265Z,82.92
2022-12-22T19:08:50.647Z,83.54
2022-12-22T19:11:21.616Z,84.61
2022-12-22T19:13:49.704Z,84.62
2022-12-22T19:16:18.785Z,83.27
2022-12-22T19:18:46.212Z,82.73
2022-12-22T19:21:14.223Z,83.06
2022-12-22T19:23:41.639Z,83.39
2022-12-22T19:26:21.800Z,83.89
2022-12-22T19:28:50.829Z,84.05
2022-12-22T19:31:23.174Z,82.98
2022-12-22T19:33:50.414Z,82.40
2022-12-22T19:36:28.085Z,82.53
2022-12-22T19:39:03.409Z,83.53
2022-12-22T19:41:53.412Z,84.81
2022-12-22T19:44:25.857Z,85.58
2022-12-22T19:46:53.800Z,84.28
2022-12-22T19:49:23.182Z,83.49
2022-12-22T19:51:50.487Z,83.53
2022-12-22T19:54:18.088Z,83.75
2022-12-22T19:56:50.846Z,84.61
2022-12-22T19:59:29.495Z,84.81
2022-12-22T20:02:00.005Z,83.58
2022-12-22T20:04:27.260Z,83.24
2022-12-22T20:06:54.289Z,83.91
2022-12-22T20:09:21.371Z,84.27
2022-12-22T20:11:48.397Z,84.98
2022-12-22T20:14:18.579Z,85.67
2022-12-22T20:16:45.932Z,84.47
2022-12-22T20:19:14.360Z,83.59
2022-12-22T20:21:41.618Z,83.59
2022-12-22T20:24:13.368Z,84.06
2022-12-22T20:26:40.408Z,84.97
2022-12-22T20:29:10.973Z,85.01
2022-12-22T20:31:38.199Z,83.93
2022-12-22T20:34:06.946Z,83.57
2022-12-22T20:36:33.982Z,83.94
2022-12-22T20:39:02.315Z,84.60
2022-12-22T20:41:29.331Z,85.35
2022-12-22T20:43:56.505Z,85.00
2022-12-22T20:46:25.743Z,83.67
2022-12-22T20:48:56.442Z,82.66
2022-12-22T20:51:24.712Z,82.66
2022-12-22T20:53:52.133Z,82.82
2022-12-22T20:56:28.507Z,83.50
2022-12-22T20:58:56.033Z,84.29
2022-12-22T21:01:23.907Z,84.27
2022-12-22T21:03:51.248Z,83.26
2022-12-22T21:06:30.209Z,82.59
2022-12-22T21:08:58.408Z,82.52
2022-12-22T21:11:25.825Z,82.75
2022-12-22T21:13:53.039Z,83.24
2022-12-22T21:16:23.186Z,83.92
2022-12-22T21:18:50.841Z,83.35
2022-12-22T21:21:17.949Z,82.39
2022-12-22T21:23:45.025Z,82.41
2022-12-22T21:26:18.835Z,82.91
2022-12-22T21:28:45.845Z,83.62
2022-12-22T21:31:12.868Z,84.68
2022-12-22T21:33:40.147Z,84.73
2022-12-22T21:36:14.177Z,83.40
2022-12-22T21:38:41.252Z,82.94
2022-12-22T21:41:08.278Z,83.13
2022-12-22T21:43:35.259Z,83.71
2022-12-22T21:46:02.347Z,84.10
2022-12-22T21:48:29.476Z,83.10
2022-12-22T21:50:56.481Z,82.49
2022-12-22T21:53:23.415Z,83.49
2022-12-22T21:55:50.491Z,84.85
2022-12-22T21:58:17.816Z,85.45
2022-12-22T22:00:47.501Z,85.16
2022-12-22T22:03:15.173Z,83.68
2022-12-22T22:05:43.138Z,82.94
2022-12-22T22:08:11.457Z,83.01
2022-12-22T22:10:40.676Z,83.44
2022-12-22T22:13:08.357Z,83.78
2022-12-22T22:15:35.735Z,84.09
2022-12-22T22:18:07.208Z,83.49
2022-12-22T22:20:34.955Z,82.44
2022-12-22T22:23:02.485Z,82.21
2022-12-22T22:25:29.539Z,82.66
2022-12-22T22:27:59.622Z,83.12
2022-12-22T22:30:26.950Z,83.95
2022-12-22T22:32:55.391Z,83.97
2022-12-22T22:35:23.479Z,82.86
2022-12-22T22:37:51.586Z,82.39
2022-12-22T22:40:20.814Z,82.58
2022-12-22T22:42:48.124Z,83.16
2022-12-22T22:45:16.582Z,83.76
2022-12-22T22:47:43.656Z,83.85
2022-12-22T22:50:10.861Z,82.66
2022-12-22T22:52:37.898Z,82.26
2022-12-22T22:55:05.613Z,82.52
2022-12-22T22:57:32.720Z,83.24
2022-12-22T22:59:59.659Z,83.93
2022-12-22T23:02:26.760Z,84.18
2022-12-22T23:04:54.067Z,83.04
2022-12-22T23:07:21.197Z,82.56
2022-12-22T23:09:48.265Z,82.73
2022-12-22T23:12:15.336Z,83.71
2022-12-22T23:14:42.358Z,84.58
2022-12-22T23:17:09.299Z,84.24
2022-12-22T23:19:36.267Z,83.04
2022-12-22T23:22:03.613Z,82.96
2022-12-22T23:24:31.537Z,83.94
2022-12-22T23:26:58.624Z,84.92
2022-12-22T23:29:25.630Z,85.39
2022-12-22T23:31:52.732Z,84.33
2022-12-22T23:34:19.944Z,82.30
2022-12-22T23:36:46.939Z,81.70
2022-12-22T23:39:14.464Z,82.16
2022-12-22T23:41:41.655Z,83.37
2022-12-22T23:44:08.678Z,84.20
2022-12-22T23:46:35.876Z,83.97
2022-12-22T23:49:02.923Z,82.70
2022-12-22T23:51:30.030Z,82.02
2022-12-22T23:53:58.338Z,82.31
2022-12-22T23:56:25.674Z,83.11
2022-12-22T23:58:55.098Z,83.95
